createdAt,value
2022-10-28T00:00:00.345Z,94
2022-10-28T00:05:00.345Z,94.7
2022-10-28T00:10:00.368Z,94.7
2022-10-28T00:15:00.364Z,94
2022-10-28T00:20:00.365Z,94.3
2022-10-28T00:25:00.371Z,94.6
2022-10-28T00:30:00.371Z,95
2022-10-28T00:35:00.396Z,95.3
2022-10-28T00:40:00.390Z,95.3
2022-10-28T00:45:00.400Z,95
2022-10-28T00:50:00.389Z,95.3
2022-10-28T00:55:00.402Z,95.3
2022-10-28T01:00:00.414Z,95.6
2022-10-28T01:05:00.415Z,95.3
2022-10-28T01:10:00.434Z,95.3
2022-10-28T01:15:00.417Z,95.3
2022-10-28T01:20:00.428Z,95.3
2022-10-28T01:25:00.433Z,95.3
2022-10-28T01:30:00.452Z,95.3
2022-10-28T01:35:00.444Z,95.3
2022-10-28T01:40:00.445Z,95.3
2022-10-28T01:45:00.302Z,95.3
2022-10-28T01:50:00.162Z,95.6
2022-10-28T01:55:00.093Z,95.3
2022-10-28T02:00:00.106Z,95.6
2022-10-28T02:05:00.490Z,95.6
2022-10-28T02:10:00.534Z,95.3
2022-10-28T02:15:00.545Z,95.3
2022-10-28T02:20:00.515Z,94.9
2022-10-28T02:25:00.509Z,95.2
2022-10-28T02:30:00.519Z,95.2
2022-10-28T02:35:00.516Z,95.2
2022-10-28T02:40:00.532Z,95.5
2022-10-28T02:45:00.529Z,95.2
2022-10-28T02:50:00.544Z,95.2
2022-10-28T02:55:00.550Z,95.5
2022-10-28T03:00:00.560Z,95.5
2022-10-28T03:05:00.555Z,95.2
2022-10-28T03:10:00.567Z,95.2
2022-10-28T03:15:00.568Z,95.5
2022-10-28T03:20:00.576Z,95.8
2022-10-28T03:25:00.579Z,96.1
2022-10-28T03:30:00.584Z,96.1
2022-10-28T03:35:00.582Z,95.8
2022-10-28T03:40:00.586Z,95.8
2022-10-28T03:45:00.592Z,95.8
2022-10-28T03:50:01.557Z,95.5
2022-10-28T03:55:00.599Z,95.8
2022-10-28T04:00:00.631Z,95.8
2022-10-28T04:05:00.613Z,96.1
2022-10-28T04:10:00.619Z,96.2
2022-10-28T04:15:00.624Z,96.5
2022-10-28T04:20:00.636Z,96.5
2022-10-28T04:25:00.626Z,96.5
2022-10-28T04:30:00.642Z,96.5
2022-10-28T04:35:00.660Z,96.5
2022-10-28T04:40:00.651Z,96.5
2022-10-28T04:45:00.655Z,96.2
2022-10-28T04:50:00.662Z,95.9
2022-10-28T04:55:00.678Z,95.9
2022-10-28T05:00:00.674Z,95.6
2022-10-28T05:05:00.689Z,95.3
2022-10-28T05:10:00.805Z,95.2
2022-10-28T05:15:00.784Z,94.6
2022-10-28T05:20:00.812Z,94.6
2022-10-28T05:25:00.764Z,95.2
2022-10-28T05:30:00.713Z,95.2
2022-10-28T05:35:00.710Z,95.2
2022-10-28T05:40:00.806Z,95.5
2022-10-28T05:45:00.721Z,95.9
2022-10-28T05:50:00.727Z,95.9
2022-10-28T05:55:00.734Z,95.9
2022-10-28T06:00:00.736Z,95.9
2022-10-28T06:05:00.741Z,95.9
2022-10-28T06:10:00.744Z,95.9
2022-10-28T06:14:59.218Z,95.9
2022-10-28T06:19:59.229Z,96
2022-10-28T06:24:59.244Z,96.3
2022-10-28T06:29:59.257Z,96.3
2022-10-28T06:34:59.263Z,96
2022-10-28T06:39:59.271Z,96
2022-10-28T06:44:59.278Z,96
2022-10-28T06:50:00.828Z,96
2022-10-28T06:55:00.814Z,96.1
2022-10-28T07:00:00.838Z,96.1
2022-10-28T07:05:00.896Z,96.1
2022-10-28T07:10:00.857Z,96.1
2022-10-28T07:15:00.878Z,95.8
2022-10-28T07:20:00.876Z,95.9
2022-10-28T07:25:00.894Z,95.9
2022-10-28T07:30:00.883Z,95.6
2022-10-28T07:35:00.886Z,95.6
2022-10-28T07:40:00.912Z,95.7
2022-10-28T07:45:00.909Z,95.7
2022-10-28T07:50:00.242Z,94.4
2022-10-28T07:55:00.233Z,94.8
2022-10-28T08:00:00.226Z,94.1
2022-10-28T08:05:00.240Z,94.5
2022-10-28T08:10:00.219Z,94.2
2022-10-28T08:15:00.229Z,94.9
2022-10-28T08:20:00.228Z,94.6
2022-10-28T08:25:00.210Z,94.6
2022-10-28T08:30:00.221Z,94
2022-10-28T08:35:00.229Z,92.8
2022-10-28T08:40:00.269Z,93.5
2022-10-28T08:45:00.242Z,93.5
2022-10-28T08:50:00.243Z,92.3
2022-10-28T08:55:00.265Z,90.1
2022-10-28T09:00:00.276Z,90.8
2022-10-28T09:05:00.277Z,90.5
2022-10-28T09:10:00.280Z,89.9
2022-10-28T09:15:00.282Z,89.3
2022-10-28T09:20:00.333Z,90
2022-10-28T09:25:00.311Z,87.5
2022-10-28T09:30:00.273Z,88.2
2022-10-28T09:35:00.355Z,85.7
2022-10-28T09:40:00.287Z,85.5
2022-10-28T09:45:00.410Z,84.9
2022-10-28T09:50:00.265Z,83.4
2022-10-28T09:55:00.294Z,80.2
2022-10-28T10:00:00.430Z,77.7
2022-10-28T10:05:00.431Z,77.4
2022-10-28T10:10:00.507Z,76.9
2022-10-28T10:15:00.317Z,73.4
2022-10-28T10:20:00.314Z,72.7
2022-10-28T10:25:00.316Z,72.7
2022-10-28T10:30:00.320Z,73.1
2022-10-28T10:35:00.340Z,74
2022-10-28T10:40:00.344Z,73.4
2022-10-28T10:45:00.347Z,73.4
2022-10-28T10:50:00.346Z,72.8
2022-10-28T10:55:00.351Z,72.2
2022-10-28T11:00:00.351Z,71.9
2022-10-28T11:05:00.357Z,71.9
2022-10-28T11:10:00.362Z,70
2022-10-28T11:15:00.384Z,71.3
2022-10-28T11:20:00.379Z,71
2022-10-28T11:25:00.376Z,71.9
2022-10-28T11:30:00.397Z,72.3
2022-10-28T11:35:00.388Z,71.9
2022-10-28T11:40:00.393Z,73.5
2022-10-28T11:45:00.461Z,74.5
2022-10-28T11:50:00.412Z,72
2022-10-28T11:55:00.411Z,71.4
2022-10-28T12:00:00.431Z,70.4
2022-10-28T12:05:00.419Z,70.4
2022-10-28T12:10:00.426Z,69.2
2022-10-28T12:15:00.439Z,70.8
2022-10-28T12:20:00.435Z,69.1
2022-10-28T12:25:00.496Z,68.8
2022-10-28T12:30:00.447Z,71.1
2022-10-28T12:35:00.458Z,68.9
2022-10-28T12:40:00.456Z,68.5
2022-10-28T12:45:00.473Z,67.2
2022-10-28T12:50:00.471Z,68.5
2022-10-28T12:55:00.522Z,69.8
2022-10-28T13:00:00.484Z,67.5
2022-10-28T13:05:00.484Z,69.8
2022-10-28T13:10:00.486Z,69.1
2022-10-28T13:15:00.556Z,67.9
2022-10-28T13:20:00.499Z,67.2
2022-10-28T13:25:00.506Z,66
2022-10-28T13:30:00.511Z,66.6
2022-10-28T13:35:00.515Z,68.5
2022-10-28T13:40:00.497Z,69.8
2022-10-28T13:45:00.415Z,67.8
2022-10-28T13:50:00.277Z,69.4
2022-10-28T13:55:00.119Z,69
2022-10-28T14:00:00.106Z,69.7
2022-10-28T14:05:00.153Z,71.6
2022-10-28T14:10:00.123Z,71.6
2022-10-28T14:15:00.181Z,70.3
2022-10-28T14:20:00.166Z,72.6
2022-10-28T14:25:01.012Z,71.6
2022-10-28T14:30:00.223Z,70.9
2022-10-28T14:35:01.168Z,72.2
2022-10-28T14:40:00.152Z,72.9
2022-10-28T14:45:00.145Z,72.2
2022-10-28T14:50:00.156Z,72.8
2022-10-28T14:55:00.160Z,73.4
2022-10-28T15:00:00.164Z,74.7
2022-10-28T15:05:00.166Z,75.3
2022-10-28T15:10:00.238Z,75.6
2022-10-28T15:15:00.180Z,75.9
2022-10-28T15:20:00.186Z,76.2
2022-10-28T15:25:00.195Z,76.5
2022-10-28T15:30:00.255Z,77.2
2022-10-28T15:35:00.218Z,77.8
2022-10-28T15:40:05.286Z,78.4
2022-10-28T15:45:00.206Z,78.3
2022-10-28T15:50:00.367Z,78.9
2022-10-28T15:55:00.229Z,79.9
2022-10-28T16:00:00.231Z,79.5
2022-10-28T16:05:00.236Z,80.1
2022-10-28T16:10:00.246Z,80.1
2022-10-28T16:15:00.270Z,80.7
2022-10-28T16:20:00.417Z,81.9
2022-10-28T16:25:00.305Z,81.8
2022-10-28T16:30:00.468Z,82.4
2022-10-28T16:35:00.319Z,82.4
2022-10-28T16:40:00.318Z,82.4
2022-10-28T16:45:00.307Z,82.3
2022-10-28T16:50:00.389Z,83.5
2022-10-28T16:55:00.334Z,84.1
2022-10-28T17:00:00.361Z,84.4
2022-10-28T17:05:00.335Z,84.7
2022-10-28T17:10:00.343Z,85.9
2022-10-28T17:15:00.362Z,85.6
2022-10-28T17:20:00.367Z,85.9
2022-10-28T17:25:00.373Z,86.2
2022-10-28T17:30:00.477Z,86.5
2022-10-28T17:35:00.376Z,86.5
2022-10-28T17:40:00.549Z,86.7
2022-10-28T17:45:00.395Z,87.7
2022-10-28T17:50:00.397Z,88
2022-10-28T17:55:00.407Z,88.3
2022-10-28T18:00:00.416Z,88.3
2022-10-28T18:05:00.417Z,88.6
2022-10-28T18:10:00.430Z,89.2
2022-10-28T18:15:00.428Z,89.5
2022-10-28T18:20:00.434Z,90.1
2022-10-28T18:25:00.449Z,90.1
2022-10-28T18:30:00.451Z,89.8
2022-10-28T18:35:00.451Z,90.1
2022-10-28T18:40:00.473Z,90.7
2022-10-28T18:45:00.484Z,90.1
2022-10-28T18:50:00.478Z,90.7
2022-10-28T18:55:00.490Z,90.7
2022-10-28T19:00:21.278Z,90.4
2022-10-28T19:05:00.527Z,91
2022-10-28T19:10:00.491Z,91
2022-10-28T19:15:00.498Z,90.4
2022-10-28T19:20:00.512Z,90.7
2022-10-28T19:25:00.505Z,91
2022-10-28T19:30:00.507Z,91.6
2022-10-28T19:35:00.525Z,92.6
2022-10-28T19:40:00.551Z,92
2022-10-28T19:45:00.378Z,91.6
2022-10-28T19:50:00.344Z,92.3
2022-10-28T19:55:00.192Z,92.3
2022-10-28T20:00:00.479Z,92.3
2022-10-28T20:05:00.100Z,92.6
2022-10-28T20:10:00.503Z,92.2
2022-10-28T20:15:00.202Z,92.6
2022-10-28T20:20:00.197Z,92.5
2022-10-28T20:25:00.134Z,92.5
2022-10-28T20:30:00.211Z,92.5
2022-10-28T20:35:00.213Z,92.8
2022-10-28T20:40:04.525Z,92.8
2022-10-28T20:45:00.225Z,92.8
2022-10-28T20:50:00.230Z,92.8
2022-10-28T20:55:00.151Z,92.8
2022-10-28T21:00:00.163Z,92.8
2022-10-28T21:05:00.164Z,92.4
2022-10-28T21:10:00.169Z,93.1
2022-10-28T21:15:00.187Z,93.7
2022-10-28T21:25:00.273Z,93.4
2022-10-28T21:30:00.343Z,93.1
2022-10-28T21:35:00.274Z,93.1
2022-10-28T21:40:01.070Z,93.1
2022-10-28T21:45:00.295Z,93.7
2022-10-28T21:50:00.301Z,93.7
2022-10-28T21:55:05.982Z,93.7
2022-10-28T22:00:00.322Z,93.7
2022-10-28T22:05:00.324Z,93.7
2022-10-28T22:10:00.320Z,93.7
2022-10-28T22:15:00.338Z,93.7
2022-10-28T22:20:00.351Z,93.4
2022-10-28T22:25:01.238Z,93.4
2022-10-28T22:30:00.349Z,93.7
2022-10-28T22:35:00.251Z,93.7
2022-10-28T22:40:00.263Z,94
2022-10-28T22:45:00.265Z,94.3
2022-10-28T22:50:00.277Z,94.3
2022-10-28T22:55:00.277Z,94
2022-10-28T23:00:00.379Z,94.3
2022-10-28T23:05:00.325Z,94.3
2022-10-28T23:10:00.298Z,94.3
2022-10-28T23:15:00.319Z,94.3
2022-10-28T23:20:00.310Z,93.9
2022-10-28T23:25:00.314Z,94.3
2022-10-28T23:30:00.321Z,93.9
2022-10-28T23:35:00.318Z,93.6
2022-10-28T23:40:00.421Z,93.6
2022-10-28T23:45:00.335Z,93.6
2022-10-28T23:50:00.329Z,93.6
2022-10-28T23:55:00.349Z,94.2
